createdAt,value
2017-08-14T00:01:06.230Z,100906
2017-08-14T00:03:35.886Z,100908
2017-08-14T00:06:05.473Z,100906
2017-08-14T00:08:35.765Z,100913
2017-08-14T00:11:05.378Z,100910
2017-08-14T00:13:34.962Z,100920
2017-08-14T00:18:59.369Z,100920
2017-08-14T00:21:28.938Z,100924
2017-08-14T00:23:58.504Z,100916
2017-08-14T00:26:28.124Z,100911
2017-08-14T00:28:57.708Z,100921
2017-08-14T00:34:21.959Z,100920
2017-08-14T00:36:51.530Z,100914
2017-08-14T00:39:21.110Z,100917
2017-08-14T00:41:50.717Z,100913
2017-08-14T00:47:15.357Z,100907
2017-08-14T00:49:44.924Z,100916
2017-08-14T00:52:14.534Z,100918
2017-08-14T00:54:44.107Z,100918
2017-08-14T00:57:13.705Z,100917
2017-08-14T00:59:43.793Z,100914
2017-08-14T01:02:13.349Z,100921
2017-08-14T01:04:42.950Z,100926
2017-08-14T01:07:12.527Z,100928
2017-08-14T01:09:42.137Z,100927
2017-08-14T01:12:11.705Z,100932
2017-08-14T01:14:41.288Z,100931
2017-08-14T01:17:10.903Z,100928
2017-08-14T01:19:40.472Z,100930
2017-08-14T01:22:10.033Z,100930
2017-08-14T01:24:39.650Z,100930
2017-08-14T01:27:09.212Z,100934
2017-08-14T01:29:38.799Z,100934
2017-08-14T01:32:08.402Z,100928
2017-08-14T01:34:37.964Z,100929
2017-08-14T01:37:07.533Z,100933
2017-08-14T01:39:37.156Z,100936
2017-08-14T01:42:06.726Z,100937
2017-08-14T01:44:36.302Z,100939
2017-08-14T01:50:00.921Z,100942
2017-08-14T01:52:30.502Z,100943
2017-08-14T01:55:00.140Z,100946
2017-08-14T01:57:29.764Z,100940
2017-08-14T02:02:54.785Z,100933
2017-08-14T02:05:24.377Z,100937
2017-08-14T02:07:53.998Z,100933
2017-08-14T02:10:23.572Z,100943
2017-08-14T02:12:53.127Z,100937
2017-08-14T02:15:22.782Z,100937
2017-08-14T02:17:52.357Z,100944
2017-08-14T02:20:21.953Z,100945
2017-08-14T02:22:51.566Z,100941
2017-08-14T02:25:21.156Z,100941
2017-08-14T02:30:45.985Z,100940
2017-08-14T02:33:15.553Z,100942
2017-08-14T02:35:45.128Z,100937
2017-08-14T02:38:14.733Z,100941
2017-08-14T02:40:44.314Z,100942
2017-08-14T02:43:13.893Z,100945
2017-08-14T02:45:43.531Z,100940
2017-08-14T02:48:13.103Z,100949
2017-08-14T02:50:42.683Z,100955
2017-08-14T02:53:12.306Z,100951
2017-08-14T02:55:41.877Z,100951
2017-08-14T03:01:06.902Z,100960
2017-08-14T03:03:36.527Z,100954
2017-08-14T03:06:06.110Z,100961
2017-08-14T03:08:35.711Z,100953
2017-08-14T03:14:00.053Z,100955
2017-08-14T03:16:29.636Z,100954
2017-08-14T03:18:59.206Z,100955
2017-08-14T03:21:28.827Z,100954
2017-08-14T03:23:58.393Z,100945
2017-08-14T03:26:35.925Z,100952
2017-08-14T03:29:05.495Z,100957
2017-08-14T03:31:35.071Z,100952
2017-08-14T03:34:04.741Z,100955
2017-08-14T03:36:34.316Z,100958
2017-08-14T03:39:03.890Z,100958
2017-08-14T03:41:37.044Z,100959
2017-08-14T03:44:06.610Z,100962
2017-08-14T03:46:36.178Z,100965
2017-08-14T03:49:05.776Z,100967
2017-08-14T03:51:36.359Z,100973
2017-08-14T03:57:00.621Z,100975
2017-08-14T03:59:30.211Z,100971
2017-08-14T04:01:59.784Z,100977
2017-08-14T04:07:37.483Z,100976
2017-08-14T04:10:07.068Z,100980
2017-08-14T04:12:36.658Z,100975
2017-08-14T04:15:06.264Z,100981
2017-08-14T04:17:35.833Z,100977
2017-08-14T04:20:05.405Z,100975
2017-08-14T04:22:35.012Z,100980
2017-08-14T04:25:04.585Z,100986
2017-08-14T04:27:34.170Z,100985
2017-08-14T04:30:03.769Z,100978
2017-08-14T04:32:36.650Z,100985
2017-08-14T04:35:06.266Z,100989
2017-08-14T04:37:35.850Z,100980
2017-08-14T04:40:05.442Z,100983
2017-08-14T04:42:35.063Z,100985
2017-08-14T04:45:04.638Z,100986
2017-08-14T04:47:37.692Z,100988
2017-08-14T04:50:07.256Z,100981
2017-08-14T04:52:36.871Z,100991
2017-08-14T04:55:06.436Z,100997
2017-08-14T04:57:35.996Z,101001
2017-08-14T05:00:05.609Z,101001
2017-08-14T05:02:35.191Z,101012
2017-08-14T05:05:04.813Z,101007
2017-08-14T05:07:34.386Z,101014
2017-08-14T05:10:03.957Z,101011
2017-08-14T05:12:33.577Z,101011
2017-08-14T05:17:58.394Z,101021
2017-08-14T05:20:27.975Z,101018
2017-08-14T05:22:57.544Z,101021
2017-08-14T05:25:27.144Z,101028
2017-08-14T05:27:56.705Z,101029
2017-08-14T05:30:36.591Z,101022
2017-08-14T05:33:06.162Z,101032
2017-08-14T05:35:35.737Z,101025
2017-08-14T05:38:05.351Z,101033
2017-08-14T05:40:34.944Z,101030
2017-08-14T05:43:04.548Z,101029
2017-08-14T05:45:37.538Z,101037
2017-08-14T05:48:07.156Z,101039
2017-08-14T05:50:36.730Z,101037
2017-08-14T05:53:06.309Z,101044
2017-08-14T05:55:35.908Z,101035
2017-08-14T06:00:47.400Z,101055
2017-08-14T06:03:17.018Z,101052
2017-08-14T06:05:46.639Z,101060
2017-08-14T06:08:16.203Z,101063
2017-08-14T06:10:45.779Z,101070
2017-08-14T06:13:15.405Z,101066
2017-08-14T06:15:44.972Z,101068
2017-08-14T06:18:35.652Z,101065
2017-08-14T06:23:59.953Z,101081
2017-08-14T06:26:36.207Z,101088
2017-08-14T06:37:50.044Z,101099
2017-08-14T06:40:36.133Z,101088
2017-08-14T06:46:01.032Z,101102
2017-08-14T06:48:36.489Z,101104
2017-08-14T06:54:01.112Z,101094
2017-08-14T06:56:36.566Z,101095
2017-08-14T07:08:18.437Z,101093
2017-08-14T07:25:35.014Z,101095
2017-08-14T07:39:43.200Z,101103
2017-08-14T08:05:55.223Z,101120
2017-08-14T08:11:29.267Z,101134
2017-08-14T08:28:38.736Z,101130
2017-08-14T08:34:03.275Z,101146
2017-08-14T08:36:32.849Z,101149
2017-08-14T08:39:02.422Z,101146
2017-08-14T08:44:35.766Z,101145
2017-08-14T08:52:54.610Z,101145
2017-08-14T08:55:36.895Z,101144
2017-08-14T09:03:56.641Z,101154
2017-08-14T09:06:36.009Z,101153
2017-08-14T09:17:49.973Z,101156
2017-08-14T09:20:19.559Z,101153
2017-08-14T09:25:37.606Z,101148
2017-08-14T09:28:07.183Z,101153
2017-08-14T09:30:37.108Z,101154
2017-08-14T09:33:06.709Z,101151
2017-08-14T09:35:36.283Z,101143
2017-08-14T09:38:05.852Z,101144
2017-08-14T09:43:37.392Z,101145
2017-08-14T09:46:06.980Z,101147
2017-08-14T09:48:36.549Z,101139
2017-08-14T09:56:55.521Z,101140
2017-08-14T09:59:37.565Z,101142
2017-08-14T10:05:02.434Z,101147
2017-08-14T10:10:36.110Z,101131
2017-08-14T10:15:44.468Z,101145
2017-08-14T10:18:35.285Z,101127
2017-08-14T10:21:04.923Z,101133
2017-08-14T10:23:37.735Z,101124
2017-08-14T10:34:51.396Z,101121
2017-08-14T10:37:37.387Z,101112
2017-08-14T10:43:02.623Z,101123
2017-08-14T10:45:37.916Z,101129
2017-08-14T10:48:20.225Z,101121
2017-08-14T10:50:49.790Z,101119
2017-08-14T10:56:14.762Z,101116
2017-08-14T10:58:44.358Z,101122
2017-08-14T11:01:35.762Z,101121
2017-08-14T11:06:59.987Z,101121
2017-08-14T11:09:29.557Z,101117
2017-08-14T11:23:37.969Z,101094
2017-08-14T11:29:02.477Z,101095
2017-08-14T11:42:55.654Z,101089
2017-08-14T11:45:37.699Z,101089
2017-08-14T11:48:07.304Z,101082
2017-08-14T11:50:36.878Z,101084
2017-08-14T11:56:01.759Z,101081
2017-08-14T11:58:36.986Z,101079
2017-08-14T12:01:06.600Z,101084
2017-08-14T12:03:37.472Z,101079
2017-08-14T12:09:01.723Z,101067
2017-08-14T12:11:37.115Z,101076
2017-08-14T12:19:56.399Z,101073
2017-08-14T12:22:29.710Z,101068
2017-08-14T12:24:59.349Z,101063
2017-08-14T12:27:35.578Z,101058
2017-08-14T12:30:05.189Z,101061
2017-08-14T12:35:36.642Z,101065
2017-08-14T12:38:06.240Z,101063
2017-08-14T12:40:35.880Z,101052
2017-08-14T12:46:11.355Z,101059
2017-08-14T12:48:40.987Z,101054
2017-08-14T12:51:10.553Z,101053
2017-08-14T12:53:40.191Z,101052
2017-08-14T12:56:09.771Z,101045
2017-08-14T12:58:39.414Z,101046
2017-08-14T13:01:08.980Z,101042
2017-08-14T13:06:36.859Z,101045
2017-08-14T13:20:36.358Z,101038
2017-08-14T13:40:37.294Z,101046
2017-08-14T13:54:46.287Z,101042
2017-08-14T14:12:03.644Z,101037
2017-08-14T14:35:19.510Z,101036
2017-08-14T14:40:43.754Z,101030
2017-08-14T15:03:37.580Z,101022
2017-08-14T15:14:50.899Z,101021
2017-08-14T15:31:50.538Z,101006
2017-08-14T16:06:36.693Z,101000
2017-08-14T16:21:10.510Z,101002
2017-08-14T16:26:37.534Z,101003
2017-08-14T16:46:44.736Z,101001
2017-08-14T16:49:35.481Z,101004
2017-08-14T17:06:38.510Z,100993
2017-08-14T17:09:08.085Z,100998
2017-08-14T17:26:14.512Z,101010
2017-08-14T17:28:44.304Z,101008
2017-08-14T17:31:13.874Z,101005
2017-08-14T17:33:43.449Z,101012
2017-08-14T17:36:36.268Z,101003
2017-08-14T17:39:05.837Z,101006
2017-08-14T17:41:35.423Z,101020
2017-08-14T17:44:05.042Z,101013
2017-08-14T17:46:34.640Z,101010
2017-08-14T17:49:04.227Z,101010
2017-08-14T17:51:33.863Z,101020
2017-08-14T17:56:58.210Z,101014
2017-08-14T17:59:27.783Z,101010
2017-08-14T18:01:57.349Z,101020
2017-08-14T18:04:36.612Z,101009
2017-08-14T18:07:06.178Z,101014
2017-08-14T18:09:37.106Z,101019
2017-08-14T18:12:07.577Z,101021
2017-08-14T18:14:37.204Z,101019
2017-08-14T18:17:06.777Z,101015
2017-08-14T18:19:36.657Z,101016
2017-08-14T18:24:41.048Z,101031
2017-08-14T18:30:06.105Z,101028
2017-08-14T18:32:36.586Z,101035
2017-08-14T18:55:36.833Z,101054
2017-08-14T19:09:52.747Z,101057
2017-08-14T19:15:35.662Z,101069
2017-08-14T19:29:43.697Z,101066
2017-08-14T19:32:16.315Z,101065
2017-08-14T19:43:36.946Z,101071
2017-08-14T20:00:39.867Z,101069
2017-08-14T20:03:09.443Z,101073
2017-08-14T20:05:39.053Z,101065
2017-08-14T20:22:49.511Z,101069
2017-08-14T21:23:22.930Z,101071
2017-08-14T21:34:36.254Z,101075
2017-08-14T22:03:36.441Z,101061
2017-08-14T22:20:40.860Z,101054
2017-08-14T22:23:10.429Z,101052
2017-08-14T22:25:40.047Z,101048
2017-08-14T22:28:09.676Z,101061
2017-08-14T22:30:39.249Z,101064
2017-08-14T22:33:08.881Z,101069
2017-08-14T22:35:38.458Z,101067
2017-08-14T22:38:08.088Z,101065
2017-08-14T22:40:37.671Z,101067
2017-08-14T22:43:07.236Z,101061
2017-08-14T22:45:36.847Z,101067
2017-08-14T22:48:06.481Z,101072
2017-08-14T22:50:36.059Z,101065
2017-08-14T22:53:05.705Z,101060
2017-08-14T22:55:35.278Z,101063
2017-08-14T22:58:04.914Z,101058
2017-08-14T23:00:34.538Z,101052
2017-08-14T23:06:07.061Z,101049
2017-08-14T23:08:36.633Z,101046
2017-08-14T23:11:06.260Z,101049
2017-08-14T23:13:35.829Z,101056
2017-08-14T23:16:05.461Z,101051
2017-08-14T23:18:35.030Z,101052
2017-08-14T23:21:04.690Z,101059
2017-08-14T23:23:34.266Z,101054
2017-08-14T23:26:03.920Z,101052
2017-08-14T23:28:33.503Z,101057
2017-08-14T23:31:03.104Z,101058
2017-08-14T23:33:32.700Z,101048
2017-08-14T23:36:02.291Z,101054
2017-08-14T23:38:38.077Z,101058
2017-08-14T23:41:07.668Z,101049
2017-08-14T23:43:37.285Z,101046
2017-08-14T23:49:01.942Z,101049
2017-08-14T23:51:31.502Z,101052
2017-08-14T23:54:01.114Z,101048
2017-08-14T23:56:30.685Z,101042
